Halleck, NV (89824)

8:42 AM PST on December 21, 2014 (GMT -0800)
MesoWest Halleck Remote NV US NV DOT | Change Station
CLOSE
Current Station
Personal Weather Station
Location: Halleck, NV
Elevation: 5333 ft
Nearby Weather Stations

Elev 5333 ft 40.96 °N, 115.48 °W | Updated 50 minutes ago

Overcast
Overcast
43 °F
Feels Like 36 °F
N
14
Wind Variable Wind from SSW
Gusts 19.0 mph

Today
High -- | Low -- °F
--% Chance of Precip.
Yesterday
High -- | Low -- °F
Precip. -- in
7:03 AM 4:16 PM
Waning Crescent, 0% visible
Pressure 30.06 in
Visibility 10.0 miles
Clouds Overcast 3800 ft
Windchill 36 °F
Dew Point 38 °F
Humidity 84%
Rainfall -999.00 in
Snow Depth Not available.
UV 0 out of 12
Pollen .10 out of 12
Air Quality Not available.
Flu Activity Not available.
METAR KEKO 211556Z AUTO 00000KT 10SM OVC038 07/03 A3005 RMK AO2 SLP178 T00670033

More Conditions Fewer Conditions

Pressure 30.06 in
Visibility 10.0 miles
Clouds Overcast 3800 ft
Windchill 36 °F
Dew Point 38 °F
Humidity 84%
Rainfall -999.00 in
Snow Depth Not available.
UV 0 out of 12
Pollen .10 out of 12
Air Quality Not available.
Flu Activity Not available.
METAR KEKO 211556Z AUTO 00000KT 10SM OVC038 07/03 A3005 RMK AO2 SLP178 T00670033

More Conditions Fewer Conditions

10-Day Weather Forecast

Almanac

Astronomy

Dec. 21, 2014 Rise Set
Actual Time
Civil Twilight
Nautical Twilight
Astronomical Twilight
Moon
Length of Visible Light
Length of Day
Tomorrow will be .
, % of the Moon is Illuminated

Today's Extremes

State Highs State Lows

Community

WunderPhotos

Upload Photos

1,779,433 photos uploaded!

WunderBlogs® & News

Nearby

Air Quality

  Air Quality AQ Index Pollutant
Not available.

Snow Depth

Station Depth Elevation

Earthquake Activity

City Distance Mag. Time & Date
Minimum magnitude displayed is 2.5.

Coastal Water Temperatures

Place Temperature

Nearby Weather Stations